createdAt,value
2019-05-30T00:00:30.044Z,96.22
2019-05-30T00:02:58.566Z,96.52
2019-05-30T00:05:26.419Z,96.94
2019-05-30T00:07:54.193Z,97.43
2019-05-30T00:10:22.815Z,97.29
2019-05-30T00:12:50.431Z,97.53
2019-05-30T00:15:18.177Z,97.46
2019-05-30T00:17:45.893Z,97.59
2019-05-30T00:20:13.948Z,97.72
2019-05-30T00:22:41.594Z,97.03
2019-05-30T00:25:09.338Z,96.32
2019-05-30T00:27:37.201Z,95.60
2019-05-30T00:30:22.861Z,96.22
2019-05-30T00:32:36.041Z,96.43
2019-05-30T00:35:04.241Z,96.08
2019-05-30T00:37:31.840Z,96.55
2019-05-30T00:39:59.903Z,96.63
2019-05-30T00:42:27.801Z,96.94
2019-05-30T00:44:55.829Z,96.68
2019-05-30T00:47:23.657Z,96.00
2019-05-30T00:49:51.455Z,95.68
2019-05-30T00:52:19.188Z,95.15
2019-05-30T00:54:46.790Z,95.58
2019-05-30T00:57:15.490Z,95.63
2019-05-30T00:59:43.221Z,95.78
2019-05-30T01:02:11.061Z,96.13
2019-05-30T01:04:38.838Z,94.78
2019-05-30T01:07:07.236Z,95.30
2019-05-30T01:09:35.162Z,96.05
2019-05-30T01:12:03.129Z,95.34
2019-05-30T01:14:30.905Z,95.45
2019-05-30T01:16:59.014Z,95.73
2019-05-30T01:19:26.924Z,95.26
2019-05-30T01:21:54.658Z,94.93
2019-05-30T01:24:22.781Z,95.13
2019-05-30T01:26:50.480Z,96.34
2019-05-30T01:29:18.182Z,94.98
2019-05-30T01:31:46.273Z,94.45
2019-05-30T01:34:14.009Z,95.07
2019-05-30T01:36:41.637Z,96.17
2019-05-30T01:39:09.334Z,97.39
2019-05-30T01:41:36.997Z,96.25
2019-05-30T01:44:04.583Z,95.48
2019-05-30T01:46:33.292Z,95.06
2019-05-30T01:49:02.236Z,95.24
2019-05-30T01:51:30.135Z,95.69
2019-05-30T01:53:58.367Z,95.71
2019-05-30T01:56:26.102Z,95.58
2019-05-30T01:58:53.693Z,95.86
2019-05-30T02:01:25.040Z,96.26
2019-05-30T02:03:51.262Z,95.71
2019-05-30T02:06:19.589Z,95.73
2019-05-30T02:08:47.581Z,96.09
2019-05-30T02:11:15.239Z,96.38
2019-05-30T02:13:42.816Z,96.51
2019-05-30T02:16:10.473Z,95.92
2019-05-30T02:18:38.036Z,95.58
2019-05-30T02:21:05.925Z,95.47
2019-05-30T02:23:33.665Z,95.54
2019-05-30T02:26:02.233Z,95.35
2019-05-30T02:28:30.688Z,95.24
2019-05-30T02:30:58.262Z,95.71
2019-05-30T02:33:26.831Z,96.24
2019-05-30T02:35:54.480Z,95.97
2019-05-30T02:38:22.005Z,95.81
2019-05-30T02:40:49.717Z,95.64
2019-05-30T02:43:17.330Z,95.42
2019-05-30T02:45:45.050Z,95.43
2019-05-30T02:48:12.679Z,95.45
2019-05-30T02:50:40.394Z,95.46
2019-05-30T02:53:10.125Z,95.25
2019-05-30T02:55:37.601Z,95.15
2019-05-30T02:58:06.186Z,95.26
2019-05-30T03:00:36.286Z,95.87
2019-05-30T03:03:06.698Z,96.07
2019-05-30T03:05:34.874Z,96.26
2019-05-30T03:08:04.898Z,97.27
2019-05-30T03:10:32.263Z,97.85
2019-05-30T03:13:01.746Z,99.05
2019-05-30T03:15:29.931Z,98.84
2019-05-30T03:17:57.637Z,98.59
2019-05-30T03:20:25.185Z,99.28
2019-05-30T03:22:52.932Z,99.08
2019-05-30T03:25:20.576Z,98.70
2019-05-30T03:27:48.197Z,97.72
2019-05-30T03:30:26.104Z,97.64
2019-05-30T03:33:05.340Z,97.57
2019-05-30T03:35:26.867Z,97.59
2019-05-30T03:37:44.927Z,97.80
2019-05-30T03:40:12.987Z,97.42
2019-05-30T03:42:40.634Z,98.19
2019-05-30T03:45:11.237Z,99.08
2019-05-30T03:47:39.744Z,99.23
2019-05-30T03:50:09.843Z,98.93
2019-05-30T03:52:38.109Z,98.61
2019-05-30T03:55:09.229Z,98.50
2019-05-30T03:57:42.542Z,98.15
2019-05-30T04:00:16.003Z,98.40
2019-05-30T04:03:01.824Z,98.36
2019-05-30T04:05:35.329Z,97.77
2019-05-30T04:08:04.790Z,97.78
2019-05-30T04:10:35.763Z,97.83
2019-05-30T04:13:30.209Z,97.59
2019-05-30T04:15:58.266Z,97.60
2019-05-30T04:18:26.153Z,97.77
2019-05-30T04:20:53.929Z,97.39
2019-05-30T04:23:21.889Z,97.50
2019-05-30T04:25:49.618Z,97.57
2019-05-30T04:28:18.705Z,97.45
2019-05-30T04:30:46.470Z,97.41
2019-05-30T04:33:26.304Z,97.02
2019-05-30T04:35:43.602Z,96.63
2019-05-30T04:38:12.710Z,96.58
2019-05-30T04:40:41.692Z,96.26
2019-05-30T04:43:09.283Z,96.74
2019-05-30T04:45:36.913Z,96.92
2019-05-30T04:48:04.800Z,96.25
2019-05-30T04:50:32.510Z,96.50
2019-05-30T04:53:00.061Z,96.48
2019-05-30T04:55:27.733Z,96.61
2019-05-30T04:57:55.391Z,96.51
2019-05-30T05:00:23.111Z,96.37
2019-05-30T05:02:50.725Z,96.22
2019-05-30T05:05:23.992Z,96.67
2019-05-30T05:07:48.011Z,96.34
2019-05-30T05:10:16.095Z,96.48
2019-05-30T05:12:43.865Z,95.48
2019-05-30T05:15:12.364Z,95.49
2019-05-30T05:17:40.155Z,96.25
2019-05-30T05:20:08.122Z,95.64
2019-05-30T05:22:35.790Z,95.64
2019-05-30T05:25:03.717Z,96.01
2019-05-30T05:27:31.406Z,96.10
2019-05-30T05:29:59.095Z,96.03
2019-05-30T05:32:27.303Z,96.04
2019-05-30T05:34:55.024Z,94.69
2019-05-30T05:37:23.298Z,94.45
2019-05-30T05:39:51.222Z,93.77
2019-05-30T05:42:20.191Z,93.81
2019-05-30T05:44:48.112Z,93.69
2019-05-30T05:47:16.419Z,94.20
2019-05-30T05:49:44.384Z,94.32
2019-05-30T05:52:12.262Z,95.10
2019-05-30T05:54:40.174Z,93.76
2019-05-30T05:57:07.801Z,93.43
2019-05-30T05:59:35.547Z,93.40
2019-05-30T06:02:03.329Z,93.83
2019-05-30T06:04:31.056Z,94.82
2019-05-30T06:06:58.809Z,94.57
2019-05-30T06:09:26.487Z,94.44
2019-05-30T06:11:54.231Z,94.76
2019-05-30T06:14:21.993Z,94.07
2019-05-30T06:16:49.809Z,94.35
2019-05-30T06:19:17.475Z,94.45
2019-05-30T06:21:54.156Z,93.98
2019-05-30T06:24:15.090Z,94.00
2019-05-30T06:26:42.779Z,94.92
2019-05-30T06:29:10.376Z,94.53
2019-05-30T06:31:37.985Z,94.71
2019-05-30T06:34:06.305Z,94.80
2019-05-30T06:36:33.986Z,93.89
2019-05-30T06:39:02.222Z,93.88
2019-05-30T06:41:31.196Z,94.87
2019-05-30T06:43:58.855Z,94.53
2019-05-30T06:46:26.467Z,95.10
2019-05-30T06:48:54.427Z,94.75
2019-05-30T06:51:22.920Z,94.58
2019-05-30T06:53:50.958Z,93.58
2019-05-30T06:56:18.987Z,93.00
2019-05-30T06:58:49.017Z,92.01
2019-05-30T07:01:16.231Z,92.59
2019-05-30T07:03:43.986Z,93.05
2019-05-30T07:06:12.523Z,91.63
2019-05-30T07:08:40.816Z,90.99
2019-05-30T07:11:08.927Z,90.49
2019-05-30T07:13:36.499Z,90.45
2019-05-30T07:16:04.202Z,90.94
2019-05-30T07:18:34.888Z,91.14
2019-05-30T07:21:01.428Z,91.77
2019-05-30T07:23:30.134Z,92.08
2019-05-30T07:25:58.124Z,91.34
2019-05-30T07:28:25.861Z,91.16
2019-05-30T07:30:53.661Z,89.70
2019-05-30T07:33:21.313Z,87.26
2019-05-30T07:35:48.978Z,86.96
2019-05-30T07:38:16.628Z,87.49
2019-05-30T07:40:44.383Z,88.08
2019-05-30T07:43:12.395Z,85.94
2019-05-30T07:45:40.417Z,86.81
2019-05-30T07:48:08.256Z,86.06
2019-05-30T07:50:36.137Z,86.67
2019-05-30T07:53:04.323Z,86.58
2019-05-30T07:55:33.133Z,86.05
2019-05-30T07:58:01.543Z,84.88
2019-05-30T08:00:29.646Z,84.37
2019-05-30T08:02:57.278Z,84.34
2019-05-30T08:05:25.175Z,82.86
2019-05-30T08:07:53.118Z,82.09
2019-05-30T08:10:20.878Z,81.71
2019-05-30T08:12:48.520Z,80.52
2019-05-30T08:15:17.049Z,78.79
2019-05-30T08:17:44.802Z,76.39
2019-05-30T08:20:14.079Z,77.18
2019-05-30T08:22:41.729Z,75.87
2019-05-30T08:25:09.984Z,69.91
2019-05-30T08:27:38.677Z,68.08
2019-05-30T08:30:07.135Z,70.20
2019-05-30T08:32:35.229Z,67.98
2019-05-30T08:35:03.278Z,69.99
2019-05-30T08:37:32.024Z,66.10
2019-05-30T08:40:00.591Z,67.33
2019-05-30T08:42:29.495Z,67.57
2019-05-30T08:44:57.381Z,65.03
2019-05-30T08:47:24.981Z,64.31
2019-05-30T08:49:52.643Z,62.69
2019-05-30T08:52:20.669Z,62.64
2019-05-30T08:54:48.549Z,57.78
2019-05-30T08:57:16.574Z,55.52
2019-05-30T08:59:44.921Z,59.03
2019-05-30T09:02:12.826Z,57.15
2019-05-30T09:04:41.885Z,58.46
2019-05-30T09:07:09.686Z,56.48
2019-05-30T09:09:38.166Z,56.90
2019-05-30T09:12:05.988Z,56.23
2019-05-30T09:14:33.826Z,56.21
2019-05-30T09:17:01.529Z,55.17
2019-05-30T09:19:29.324Z,56.65
2019-05-30T09:21:57.002Z,53.33
2019-05-30T09:24:24.852Z,55.45
2019-05-30T09:26:52.589Z,55.20
2019-05-30T09:29:20.243Z,56.93
2019-05-30T09:31:48.680Z,56.45
2019-05-30T09:34:16.612Z,56.30
2019-05-30T09:36:44.763Z,54.94
2019-05-30T09:39:12.636Z,57.54
2019-05-30T09:41:41.819Z,55.69
2019-05-30T09:44:10.050Z,53.97
2019-05-30T09:46:37.867Z,54.47
2019-05-30T09:49:05.657Z,54.42
2019-05-30T09:51:33.502Z,55.49
2019-05-30T09:54:01.209Z,54.78
2019-05-30T09:56:29.210Z,53.48
2019-05-30T09:58:56.984Z,53.59
2019-05-30T10:01:24.718Z,52.35
2019-05-30T10:03:52.497Z,52.76
2019-05-30T10:06:28.918Z,51.18
2019-05-30T10:08:51.194Z,52.34
2019-05-30T10:11:20.327Z,50.12
2019-05-30T10:13:50.779Z,49.69
2019-05-30T10:16:18.395Z,49.80
2019-05-30T10:18:47.375Z,50.98
2019-05-30T10:21:17.044Z,51.89
2019-05-30T10:23:45.856Z,48.69
2019-05-30T10:26:14.308Z,49.96
2019-05-30T10:28:41.924Z,46.52
2019-05-30T10:31:09.688Z,45.74
2019-05-30T10:33:37.294Z,47.37
2019-05-30T10:36:05.006Z,45.85
2019-05-30T10:38:32.565Z,48.22
2019-05-30T10:41:00.207Z,44.87
2019-05-30T10:43:27.778Z,48.30
2019-05-30T10:45:55.535Z,47.56
2019-05-30T10:48:23.292Z,49.69
2019-05-30T10:50:50.918Z,48.66
2019-05-30T10:53:18.853Z,49.00
2019-05-30T10:55:48.087Z,49.75
2019-05-30T10:58:15.813Z,48.64
2019-05-30T11:00:48.447Z,48.62
2019-05-30T11:03:17.233Z,50.40
2019-05-30T11:05:50.684Z,47.22
2019-05-30T11:08:21.370Z,47.00
2019-05-30T11:10:50.597Z,46.68
2019-05-30T11:13:19.409Z,48.11
2019-05-30T11:15:48.752Z,48.09
2019-05-30T11:18:17.193Z,47.05
2019-05-30T11:20:45.151Z,49.25
2019-05-30T11:23:13.499Z,47.77
2019-05-30T11:25:41.109Z,47.30
2019-05-30T11:28:09.384Z,48.63
2019-05-30T11:30:37.292Z,48.07
2019-05-30T11:33:05.364Z,48.50
2019-05-30T11:35:33.045Z,47.58
2019-05-30T11:38:00.877Z,48.17
2019-05-30T11:40:29.534Z,48.54
2019-05-30T11:42:59.822Z,49.01
2019-05-30T11:45:27.868Z,46.93
2019-05-30T11:47:55.792Z,45.17
2019-05-30T11:50:23.889Z,45.64
2019-05-30T11:52:51.811Z,46.34
2019-05-30T11:55:19.556Z,46.28
2019-05-30T11:57:47.500Z,45.35
2019-05-30T12:00:15.424Z,45.90
2019-05-30T12:02:43.451Z,45.74
2019-05-30T12:05:11.259Z,47.56
2019-05-30T12:07:39.355Z,46.16
2019-05-30T12:10:08.724Z,45.00
2019-05-30T12:12:36.716Z,45.17
2019-05-30T12:15:05.201Z,47.54
2019-05-30T12:17:32.863Z,45.46
2019-05-30T12:20:01.654Z,45.94
2019-05-30T12:22:29.924Z,45.35
2019-05-30T12:24:57.780Z,47.09
2019-05-30T12:27:26.032Z,48.67
2019-05-30T12:29:54.086Z,49.03
2019-05-30T12:32:21.957Z,46.84
2019-05-30T12:34:49.709Z,48.14
2019-05-30T12:37:17.441Z,48.41
2019-05-30T12:39:46.240Z,50.64
2019-05-30T12:42:13.939Z,48.85
2019-05-30T12:44:41.604Z,46.52
2019-05-30T12:47:09.389Z,47.42
2019-05-30T12:49:37.615Z,46.83
2019-05-30T12:52:06.008Z,47.01
2019-05-30T12:54:33.808Z,45.69
2019-05-30T12:57:02.569Z,44.83
2019-05-30T12:59:30.467Z,45.97
2019-05-30T13:01:58.944Z,47.42
2019-05-30T13:04:27.267Z,45.62
2019-05-30T13:06:56.432Z,48.34
2019-05-30T13:09:25.011Z,47.70
2019-05-30T13:11:54.192Z,47.30
2019-05-30T13:14:22.380Z,47.60
2019-05-30T13:16:50.361Z,50.21
2019-05-30T13:19:18.439Z,50.70
2019-05-30T13:21:46.660Z,49.21
2019-05-30T13:24:14.545Z,48.80
2019-05-30T13:26:42.536Z,49.21
2019-05-30T13:29:10.697Z,50.45
2019-05-30T13:31:38.572Z,48.83
2019-05-30T13:34:07.173Z,47.72
2019-05-30T13:36:35.142Z,49.06
2019-05-30T13:39:05.245Z,49.32
2019-05-30T13:41:33.196Z,49.17
2019-05-30T13:44:03.227Z,50.00
2019-05-30T13:46:31.381Z,48.47
2019-05-30T13:49:00.670Z,48.57
2019-05-30T13:51:28.731Z,49.96
2019-05-30T13:53:56.703Z,50.29
2019-05-30T13:56:24.794Z,50.99
2019-05-30T13:58:53.940Z,50.62
2019-05-30T14:01:22.057Z,50.24
2019-05-30T14:03:50.372Z,50.30
2019-05-30T14:06:17.880Z,52.25
2019-05-30T14:08:45.879Z,52.04
2019-05-30T14:11:13.922Z,51.47
2019-05-30T14:13:43.895Z,52.37
2019-05-30T14:16:12.218Z,52.35
2019-05-30T14:18:40.508Z,53.98
2019-05-30T14:21:09.353Z,53.70
2019-05-30T14:23:37.886Z,53.77
2019-05-30T14:26:07.300Z,53.44
2019-05-30T14:28:35.459Z,52.51
2019-05-30T14:31:03.895Z,52.36
2019-05-30T14:33:32.602Z,53.51
2019-05-30T14:36:04.013Z,51.66
2019-05-30T14:38:29.649Z,54.75
2019-05-30T14:40:57.269Z,52.35
2019-05-30T14:43:24.959Z,53.16
2019-05-30T14:45:52.630Z,53.31
2019-05-30T14:48:20.348Z,55.11
2019-05-30T14:50:47.956Z,54.91
2019-05-30T14:53:17.075Z,54.27
2019-05-30T14:55:45.227Z,55.04
2019-05-30T14:58:13.470Z,54.88
2019-05-30T15:00:41.795Z,54.11
2019-05-30T15:03:15.437Z,54.60
2019-05-30T15:05:41.404Z,52.45
2019-05-30T15:08:10.561Z,54.28
2019-05-30T15:10:38.459Z,54.66
2019-05-30T15:13:07.500Z,52.21
2019-05-30T15:15:35.282Z,54.14
2019-05-30T15:18:03.379Z,53.23
2019-05-30T15:20:31.263Z,53.91
2019-05-30T15:22:59.401Z,55.68
2019-05-30T15:25:27.031Z,55.25
2019-05-30T15:27:54.832Z,53.45
2019-05-30T15:30:22.428Z,55.34
2019-05-30T15:32:50.232Z,55.10
2019-05-30T15:35:19.166Z,55.37
2019-05-30T15:37:48.537Z,55.78
2019-05-30T15:40:17.261Z,55.97
2019-05-30T15:42:45.340Z,57.08
2019-05-30T15:45:14.094Z,57.68
2019-05-30T15:47:42.279Z,57.92
2019-05-30T15:50:11.823Z,58.14
2019-05-30T15:52:40.104Z,60.70
2019-05-30T15:55:09.119Z,62.91
2019-05-30T15:57:37.087Z,64.13
2019-05-30T16:00:05.881Z,64.11
2019-05-30T16:02:33.504Z,62.99
2019-05-30T16:05:01.225Z,62.17
2019-05-30T16:07:30.190Z,63.88
2019-05-30T16:09:58.438Z,62.97
2019-05-30T16:12:26.084Z,64.10
2019-05-30T16:14:53.765Z,63.89
2019-05-30T16:17:21.770Z,62.89
2019-05-30T16:19:49.669Z,63.31
2019-05-30T16:22:18.352Z,65.01
2019-05-30T16:24:46.264Z,66.51
2019-05-30T16:27:15.659Z,66.10
2019-05-30T16:29:44.872Z,68.58
2019-05-30T16:32:13.800Z,69.24
2019-05-30T16:34:41.448Z,68.67
2019-05-30T16:37:09.439Z,69.23
2019-05-30T16:39:37.476Z,69.85
2019-05-30T16:42:05.567Z,70.59
2019-05-30T16:44:33.415Z,70.29
2019-05-30T16:47:01.470Z,70.77
2019-05-30T16:49:29.463Z,71.02
2019-05-30T16:51:57.353Z,72.55
2019-05-30T16:54:25.389Z,72.89
2019-05-30T16:56:53.442Z,72.35
2019-05-30T16:59:21.328Z,72.94
2019-05-30T17:01:57.958Z,73.49
2019-05-30T17:04:20.932Z,73.87
2019-05-30T17:06:49.128Z,75.87
2019-05-30T17:09:17.195Z,74.58
2019-05-30T17:11:45.238Z,74.76
2019-05-30T17:14:13.073Z,74.40
2019-05-30T17:16:41.056Z,75.28
2019-05-30T17:19:08.953Z,73.40
2019-05-30T17:21:37.104Z,75.88
2019-05-30T17:24:05.154Z,75.52
2019-05-30T17:26:33.145Z,75.67
2019-05-30T17:29:01.115Z,76.20
2019-05-30T17:31:29.281Z,76.33
2019-05-30T17:33:57.162Z,76.06
2019-05-30T17:36:26.235Z,76.94
2019-05-30T17:38:54.299Z,76.97
2019-05-30T17:41:22.762Z,78.67
2019-05-30T17:43:50.622Z,80.01
2019-05-30T17:46:19.230Z,81.66
2019-05-30T17:48:47.120Z,83.32
2019-05-30T17:51:15.246Z,83.19
2019-05-30T17:53:43.351Z,82.24
2019-05-30T17:56:11.368Z,80.30
2019-05-30T17:58:39.656Z,79.82
2019-05-30T18:01:07.429Z,78.58
2019-05-30T18:03:35.594Z,79.43
2019-05-30T18:06:03.638Z,77.17
2019-05-30T18:08:31.641Z,76.61
2019-05-30T18:10:59.564Z,78.43
2019-05-30T18:13:27.217Z,79.69
2019-05-30T18:15:55.091Z,79.46
2019-05-30T18:18:23.198Z,79.31
2019-05-30T18:20:51.224Z,79.62
2019-05-30T18:23:19.490Z,81.56
2019-05-30T18:25:47.566Z,82.21
2019-05-30T18:28:15.721Z,83.67
2019-05-30T18:30:43.949Z,84.03
2019-05-30T18:33:11.751Z,83.41
2019-05-30T18:35:40.497Z,84.09
2019-05-30T18:38:08.089Z,83.97
2019-05-30T18:40:37.067Z,84.26
2019-05-30T18:43:05.111Z,84.01
2019-05-30T18:45:40.065Z,85.69
2019-05-30T18:48:08.939Z,85.12
2019-05-30T18:50:36.763Z,84.90
2019-05-30T18:53:04.881Z,84.37
2019-05-30T18:55:32.694Z,85.02
2019-05-30T18:58:00.531Z,85.88
2019-05-30T19:00:29.167Z,86.89
2019-05-30T19:02:57.192Z,86.99
2019-05-30T19:05:25.002Z,86.75
2019-05-30T19:07:52.672Z,86.79
2019-05-30T19:10:20.468Z,86.80
2019-05-30T19:12:48.099Z,88.12
2019-05-30T19:15:16.156Z,87.68
2019-05-30T19:17:44.277Z,88.43
2019-05-30T19:20:12.369Z,89.04
2019-05-30T19:22:41.554Z,88.93
2019-05-30T19:25:09.711Z,89.71
2019-05-30T19:27:38.613Z,90.54
2019-05-30T19:30:07.707Z,89.81
2019-05-30T19:32:35.419Z,89.73
2019-05-30T19:35:03.727Z,89.75
2019-05-30T19:37:31.393Z,90.51
2019-05-30T19:39:59.006Z,91.09
2019-05-30T19:42:27.270Z,90.67
2019-05-30T19:44:55.005Z,91.27
2019-05-30T19:47:22.571Z,91.11
2019-05-30T19:49:50.252Z,92.39
2019-05-30T19:52:17.884Z,92.90
2019-05-30T19:54:45.777Z,91.93
2019-05-30T19:57:13.416Z,92.94
2019-05-30T19:59:41.080Z,92.95
2019-05-30T20:02:08.914Z,93.25
2019-05-30T20:04:36.581Z,93.53
2019-05-30T20:07:04.192Z,93.18
2019-05-30T20:09:32.477Z,93.58
2019-05-30T20:12:04.834Z,93.79
2019-05-30T20:14:30.946Z,94.24
2019-05-30T20:17:00.801Z,94.17
2019-05-30T20:19:28.514Z,94.71
2019-05-30T20:21:56.155Z,94.75
2019-05-30T20:24:23.936Z,94.47
2019-05-30T20:26:52.174Z,94.28
2019-05-30T20:29:20.367Z,94.51
2019-05-30T20:31:48.423Z,94.75
2019-05-30T20:34:18.007Z,94.95
2019-05-30T20:36:46.934Z,95.24
2019-05-30T20:39:15.090Z,95.00
2019-05-30T20:41:43.350Z,94.97
2019-05-30T20:44:12.904Z,94.69
2019-05-30T20:46:41.258Z,94.64
2019-05-30T20:49:09.309Z,94.91
2019-05-30T20:51:38.670Z,95.80
2019-05-30T20:54:07.190Z,95.66
2019-05-30T20:56:35.427Z,95.64
2019-05-30T20:59:03.436Z,95.59
2019-05-30T21:01:31.378Z,95.68
2019-05-30T21:03:59.386Z,95.58
2019-05-30T21:06:28.131Z,95.36
2019-05-30T21:08:56.860Z,95.21
2019-05-30T21:11:25.204Z,95.37
2019-05-30T21:13:53.514Z,95.74
2019-05-30T21:16:21.545Z,95.19
2019-05-30T21:18:50.970Z,95.34
2019-05-30T21:21:19.001Z,95.77
2019-05-30T21:23:47.007Z,96.07
2019-05-30T21:26:15.187Z,96.43
2019-05-30T21:28:43.352Z,96.34
2019-05-30T21:31:11.519Z,95.63
2019-05-30T21:33:40.571Z,95.52
2019-05-30T21:36:09.524Z,95.59
2019-05-30T21:38:37.857Z,95.53
2019-05-30T21:41:06.091Z,95.99
2019-05-30T21:43:34.072Z,96.18
2019-05-30T21:46:02.175Z,96.27
2019-05-30T21:48:30.434Z,96.26
2019-05-30T21:50:58.463Z,96.21
2019-05-30T21:53:26.506Z,96.84
2019-05-30T21:55:54.351Z,96.99
2019-05-30T21:58:22.452Z,96.51
2019-05-30T22:01:37.541Z,96.60
2019-05-30T22:04:07.560Z,96.90
2019-05-30T22:06:35.997Z,96.42
2019-05-30T22:09:07.109Z,96.29
2019-05-30T22:11:35.242Z,96.92
2019-05-30T22:14:03.232Z,97.65
2019-05-30T22:16:31.347Z,97.35
2019-05-30T22:18:59.456Z,97.92
2019-05-30T22:21:27.502Z,97.36
2019-05-30T22:23:55.582Z,97.47
2019-05-30T22:26:23.687Z,97.55
2019-05-30T22:28:52.925Z,97.39
2019-05-30T22:31:21.283Z,97.72
2019-05-30T22:33:51.259Z,97.83
2019-05-30T22:36:19.553Z,98.02
2019-05-30T22:38:47.512Z,97.80
2019-05-30T22:41:15.484Z,96.98
2019-05-30T22:43:43.870Z,96.97
2019-05-30T22:46:12.165Z,97.23
2019-05-30T22:48:40.111Z,97.87
2019-05-30T22:51:07.999Z,97.94
2019-05-30T22:53:36.206Z,98.40
2019-05-30T22:56:04.474Z,98.27
2019-05-30T22:58:32.583Z,98.61
2019-05-30T23:01:00.791Z,98.42
2019-05-30T23:03:28.936Z,98.53
2019-05-30T23:05:57.570Z,99.03
2019-05-30T23:08:25.834Z,99.22
2019-05-30T23:10:53.975Z,99.40
2019-05-30T23:13:22.291Z,99.48
2019-05-30T23:15:50.438Z,99.19
2019-05-30T23:18:18.327Z,99.36
2019-05-30T23:20:46.679Z,99.67
2019-05-30T23:23:14.853Z,99.40
2019-05-30T23:25:42.837Z,99.31
2019-05-30T23:28:10.819Z,98.89
2019-05-30T23:30:38.961Z,99.23
2019-05-30T23:33:07.035Z,99.31
2019-05-30T23:35:35.042Z,99.20
2019-05-30T23:38:02.930Z,99.15
2019-05-30T23:40:30.993Z,99.11
2019-05-30T23:42:59.319Z,98.89
2019-05-30T23:45:27.530Z,99.09
2019-05-30T23:47:55.630Z,99.20
2019-05-30T23:50:23.578Z,99.25
2019-05-30T23:52:52.505Z,99.10
2019-05-30T23:55:20.599Z,99.14
2019-05-30T23:57:48.682Z,99.19
